sensor_id;sensor_type;location;lat;lon;timestamp;pressure;altitude;pressure_sealevel;temperature;humidity
77240;BME280;66258;53.170;-2.240;2022-12-20T00:01:18;98836.06;;;15.15;100.00
77240;BME280;66258;53.170;-2.240;2022-12-20T00:03:49;98833.56;;;15.13;100.00
77240;BME280;66258;53.170;-2.240;2022-12-20T00:06:17;98826.53;;;15.06;100.00
77240;BME280;66258;53.170;-2.240;2022-12-20T00:08:45;98828.88;;;15.02;100.00
77240;BME280;66258;53.170;-2.240;2022-12-20T00:11:13;98829.56;;;14.98;100.00
77240;BME280;66258;53.170;-2.240;2022-12-20T00:13:40;98837.25;;;14.89;100.00
77240;BME280;66258;53.170;-2.240;2022-12-20T00:16:12;98838.31;;;14.88;100.00
77240;BME280;66258;53.170;-2.240;2022-12-20T00:18:40;98834.38;;;14.84;100.00
77240;BME280;66258;53.170;-2.240;2022-12-20T00:21:11;98831.72;;;14.77;100.00
77240;BME280;66258;53.170;-2.240;2022-12-20T00:23:39;98830.31;;;14.75;100.00
77240;BME280;66258;53.170;-2.240;2022-12-20T00:26:12;98828.44;;;14.75;100.00
77240;BME280;66258;53.170;-2.240;2022-12-20T00:28:41;98828.31;;;14.82;100.00
77240;BME280;66258;53.170;-2.240;2022-12-20T00:31:10;98828.44;;;14.75;100.00
77240;BME280;66258;53.170;-2.240;2022-12-20T00:33:39;98829.34;;;14.69;100.00
77240;BME280;66258;53.170;-2.240;2022-12-20T00:36:07;98826.84;;;14.68;100.00
77240;BME280;66258;53.170;-2.240;2022-12-20T00:38:35;98833.19;;;14.62;100.00
77240;BME280;66258;53.170;-2.240;2022-12-20T00:41:11;98822.91;;;14.64;100.00
77240;BME280;66258;53.170;-2.240;2022-12-20T00:43:39;98827.03;;;14.55;100.00
77240;BME280;66258;53.170;-2.240;2022-12-20T00:46:08;98821.66;;;14.78;100.00
77240;BME280;66258;53.170;-2.240;2022-12-20T00:48:36;98815.38;;;14.48;100.00
77240;BME280;66258;53.170;-2.240;2022-12-20T00:51:07;98811.69;;;14.35;100.00
77240;BME280;66258;53.170;-2.240;2022-12-20T00:53:36;98810.41;;;14.38;100.00
77240;BME280;66258;53.170;-2.240;2022-12-20T00:56:04;98814.50;;;14.29;100.00
77240;BME280;66258;53.170;-2.240;2022-12-20T00:58:34;98812.56;;;14.54;100.00
77240;BME280;66258;53.170;-2.240;2022-12-20T01:01:02;98807.78;;;14.68;100.00
77240;BME280;66258;53.170;-2.240;2022-12-20T01:03:29;98814.94;;;14.81;100.00
77240;BME280;66258;53.170;-2.240;2022-12-20T01:06:01;98806.91;;;14.86;100.00
77240;BME280;66258;53.170;-2.240;2022-12-20T01:08:29;98804.41;;;14.84;100.00
77240;BME280;66258;53.170;-2.240;2022-12-20T01:11:18;98796.94;;;14.79;100.00
77240;BME280;66258;53.170;-2.240;2022-12-20T01:13:49;98810.78;;;14.78;100.00
77240;BME280;66258;53.170;-2.240;2022-12-20T01:16:27;98806.53;;;14.82;100.00
77240;BME280;66258;53.170;-2.240;2022-12-20T01:18:55;98796.28;;;14.66;100.00
77240;BME280;66258;53.170;-2.240;2022-12-20T01:21:24;98798.25;;;14.59;100.00
77240;BME280;66258;53.170;-2.240;2022-12-20T01:23:52;98794.38;;;14.66;100.00
77240;BME280;66258;53.170;-2.240;2022-12-20T01:26:21;98798.47;;;14.57;100.00
77240;BME280;66258;53.170;-2.240;2022-12-20T01:28:52;98796.09;;;14.49;100.00
77240;BME280;66258;53.170;-2.240;2022-12-20T01:31:20;98806.03;;;14.55;100.00
77240;BME280;66258;53.170;-2.240;2022-12-20T01:33:50;98805.44;;;14.71;100.00
77240;BME280;66258;53.170;-2.240;2022-12-20T01:36:24;98810.28;;;14.69;100.00
77240;BME280;66258;53.170;-2.240;2022-12-20T01:39:00;98806.72;;;14.69;100.00
77240;BME280;66258;53.170;-2.240;2022-12-20T01:41:28;98812.31;;;14.74;100.00
77240;BME280;66258;53.170;-2.240;2022-12-20T01:43:59;98806.38;;;14.77;100.00
77240;BME280;66258;53.170;-2.240;2022-12-20T01:46:31;98809.94;;;14.77;100.00
77240;BME280;66258;53.170;-2.240;2022-12-20T01:49:09;98819.69;;;14.85;100.00
77240;BME280;66258;53.170;-2.240;2022-12-20T01:51:44;98833.47;;;14.90;100.00
77240;BME280;66258;53.170;-2.240;2022-12-20T01:54:16;98823.03;;;14.87;100.00
77240;BME280;66258;53.170;-2.240;2022-12-20T01:56:51;98824.84;;;14.93;100.00
77240;BME280;66258;53.170;-2.240;2022-12-20T01:59:20;98813.94;;;14.93;100.00
77240;BME280;66258;53.170;-2.240;2022-12-20T02:01:48;98812.28;;;14.92;100.00
77240;BME280;66258;53.170;-2.240;2022-12-20T02:04:15;98808.13;;;14.90;100.00
77240;BME280;66258;53.170;-2.240;2022-12-20T02:06:43;98801.66;;;14.72;100.00
77240;BME280;66258;53.170;-2.240;2022-12-20T02:09:10;98800.50;;;14.62;100.00
77240;BME280;66258;53.170;-2.240;2022-12-20T02:19:55;98819.97;;;14.47;100.00
77240;BME280;66258;53.170;-2.240;2022-12-20T02:30:53;98831.66;;;14.11;100.00
77240;BME280;66258;53.170;-2.240;2022-12-20T02:33:24;98833.34;;;14.12;100.00
77240;BME280;66258;53.170;-2.240;2022-12-20T02:35:52;98833.59;;;13.86;100.00
77240;BME280;66258;53.170;-2.240;2022-12-20T02:38:36;98834.19;;;13.63;100.00
77240;BME280;66258;53.170;-2.240;2022-12-20T02:41:07;98831.22;;;13.71;100.00
77240;BME280;66258;53.170;-2.240;2022-12-20T02:43:40;98830.22;;;13.65;100.00
77240;BME280;66258;53.170;-2.240;2022-12-20T02:46:28;98825.81;;;13.64;100.00
77240;BME280;66258;53.170;-2.240;2022-12-20T02:49:00;98831.25;;;13.64;100.00
77240;BME280;66258;53.170;-2.240;2022-12-20T02:51:31;98817.06;;;13.62;100.00
77240;BME280;66258;53.170;-2.240;2022-12-20T02:53:59;98816.22;;;13.62;100.00
77240;BME280;66258;53.170;-2.240;2022-12-20T02:56:36;98824.19;;;13.57;100.00
77240;BME280;66258;53.170;-2.240;2022-12-20T02:59:12;98826.09;;;13.56;100.00
77240;BME280;66258;53.170;-2.240;2022-12-20T03:01:45;98841.09;;;13.65;100.00
77240;BME280;66258;53.170;-2.240;2022-12-20T03:04:16;98833.47;;;13.74;100.00
77240;BME280;66258;53.170;-2.240;2022-12-20T03:09:31;98833.69;;;13.72;100.00
77240;BME280;66258;53.170;-2.240;2022-12-20T03:11:59;98820.66;;;13.81;100.00
77240;BME280;66258;53.170;-2.240;2022-12-20T03:14:27;98818.44;;;13.71;100.00
77240;BME280;66258;53.170;-2.240;2022-12-20T03:16:54;98819.16;;;13.60;100.00
77240;BME280;66258;53.170;-2.240;2022-12-20T03:19:21;98823.41;;;13.74;100.00
77240;BME280;66258;53.170;-2.240;2022-12-20T03:21:49;98830.25;;;13.84;100.00
77240;BME280;66258;53.170;-2.240;2022-12-20T03:24:17;98836.69;;;13.89;100.00
77240;BME280;66258;53.170;-2.240;2022-12-20T03:26:44;98840.06;;;13.85;100.00
77240;BME280;66258;53.170;-2.240;2022-12-20T03:29:11;98848.47;;;13.83;100.00
77240;BME280;66258;53.170;-2.240;2022-12-20T03:31:38;98853.63;;;13.91;100.00
77240;BME280;66258;53.170;-2.240;2022-12-20T03:34:06;98848.84;;;13.87;100.00
77240;BME280;66258;53.170;-2.240;2022-12-20T03:36:33;98840.13;;;13.78;100.00
77240;BME280;66258;53.170;-2.240;2022-12-20T03:39:00;98838.25;;;13.79;100.00
77240;BME280;66258;53.170;-2.240;2022-12-20T03:41:27;98841.97;;;13.84;100.00
77240;BME280;66258;53.170;-2.240;2022-12-20T03:43:55;98842.00;;;13.77;100.00
77240;BME280;66258;53.170;-2.240;2022-12-20T03:46:22;98834.91;;;13.76;100.00
77240;BME280;66258;53.170;-2.240;2022-12-20T03:48:49;98826.97;;;13.75;100.00
77240;BME280;66258;53.170;-2.240;2022-12-20T03:51:16;98844.72;;;13.77;100.00
77240;BME280;66258;53.170;-2.240;2022-12-20T03:53:43;98848.28;;;13.78;100.00
77240;BME280;66258;53.170;-2.240;2022-12-20T03:56:10;98844.56;;;13.72;100.00
77240;BME280;66258;53.170;-2.240;2022-12-20T03:58:37;98851.88;;;13.72;100.00
77240;BME280;66258;53.170;-2.240;2022-12-20T04:01:23;98854.72;;;13.84;100.00
77240;BME280;66258;53.170;-2.240;2022-12-20T04:03:51;98864.72;;;13.90;100.00
77240;BME280;66258;53.170;-2.240;2022-12-20T04:06:20;98854.13;;;13.82;100.00
77240;BME280;66258;53.170;-2.240;2022-12-20T04:08:48;98852.44;;;13.81;100.00
77240;BME280;66258;53.170;-2.240;2022-12-20T04:11:15;98851.41;;;13.82;100.00
77240;BME280;66258;53.170;-2.240;2022-12-20T04:13:47;98859.50;;;13.88;100.00
77240;BME280;66258;53.170;-2.240;2022-12-20T04:16:17;98853.28;;;13.81;100.00
77240;BME280;66258;53.170;-2.240;2022-12-20T04:18:45;98849.28;;;13.84;100.00
77240;BME280;66258;53.170;-2.240;2022-12-20T04:21:13;98855.00;;;13.75;100.00
77240;BME280;66258;53.170;-2.240;2022-12-20T04:23:42;98859.13;;;13.85;100.00
77240;BME280;66258;53.170;-2.240;2022-12-20T04:26:10;98849.94;;;13.79;100.00
77240;BME280;66258;53.170;-2.240;2022-12-20T04:28:37;98849.94;;;13.79;100.00
77240;BME280;66258;53.170;-2.240;2022-12-20T04:31:04;98845.56;;;13.78;100.00
77240;BME280;66258;53.170;-2.240;2022-12-20T04:33:32;98837.81;;;13.82;100.00
77240;BME280;66258;53.170;-2.240;2022-12-20T04:35:59;98843.84;;;13.84;100.00
77240;BME280;66258;53.170;-2.240;2022-12-20T04:38:27;98839.78;;;13.93;100.00
77240;BME280;66258;53.170;-2.240;2022-12-20T04:40:54;98842.81;;;13.85;100.00
77240;BME280;66258;53.170;-2.240;2022-12-20T04:43:22;98843.00;;;13.83;100.00
77240;BME280;66258;53.170;-2.240;2022-12-20T04:45:51;98849.50;;;13.82;100.00
77240;BME280;66258;53.170;-2.240;2022-12-20T04:48:23;98857.00;;;13.87;100.00
77240;BME280;66258;53.170;-2.240;2022-12-20T04:51:15;98839.03;;;13.86;100.00
77240;BME280;66258;53.170;-2.240;2022-12-20T04:53:43;98839.38;;;13.71;100.00
77240;BME280;66258;53.170;-2.240;2022-12-20T04:56:15;98837.84;;;13.75;100.00
77240;BME280;66258;53.170;-2.240;2022-12-20T04:58:43;98816.44;;;13.60;100.00
77240;BME280;66258;53.170;-2.240;2022-12-20T05:01:10;98817.63;;;13.46;100.00
77240;BME280;66258;53.170;-2.240;2022-12-20T05:03:38;98832.69;;;13.42;100.00
77240;BME280;66258;53.170;-2.240;2022-12-20T05:06:06;98839.56;;;13.45;100.00
77240;BME280;66258;53.170;-2.240;2022-12-20T05:08:34;98853.50;;;13.55;100.00
77240;BME280;66258;53.170;-2.240;2022-12-20T05:11:01;98851.34;;;13.63;100.00
77240;BME280;66258;53.170;-2.240;2022-12-20T05:13:29;98862.44;;;13.62;100.00
77240;BME280;66258;53.170;-2.240;2022-12-20T05:15:56;98859.88;;;13.42;100.00
77240;BME280;66258;53.170;-2.240;2022-12-20T05:18:25;98857.16;;;13.42;100.00
77240;BME280;66258;53.170;-2.240;2022-12-20T05:20:58;98861.91;;;13.22;100.00
77240;BME280;66258;53.170;-2.240;2022-12-20T05:23:44;98862.53;;;13.17;100.00
77240;BME280;66258;53.170;-2.240;2022-12-20T05:26:36;98857.09;;;13.11;100.00
77240;BME280;66258;53.170;-2.240;2022-12-20T05:29:04;98873.47;;;13.04;100.00
77240;BME280;66258;53.170;-2.240;2022-12-20T05:31:32;98873.81;;;12.76;100.00
77240;BME280;66258;53.170;-2.240;2022-12-20T05:33:59;98879.94;;;12.52;100.00
77240;BME280;66258;53.170;-2.240;2022-12-20T05:36:26;98875.38;;;12.46;100.00
77240;BME280;66258;53.170;-2.240;2022-12-20T05:38:55;98865.13;;;12.48;100.00
77240;BME280;66258;53.170;-2.240;2022-12-20T05:41:29;98867.84;;;12.48;100.00
77240;BME280;66258;53.170;-2.240;2022-12-20T05:43:57;98877.06;;;12.47;100.00
77240;BME280;66258;53.170;-2.240;2022-12-20T05:46:24;98878.88;;;12.59;100.00
77240;BME280;66258;53.170;-2.240;2022-12-20T05:48:51;98880.09;;;12.70;100.00
77240;BME280;66258;53.170;-2.240;2022-12-20T05:51:19;98882.19;;;12.68;100.00
77240;BME280;66258;53.170;-2.240;2022-12-20T05:53:46;98888.84;;;12.72;100.00
77240;BME280;66258;53.170;-2.240;2022-12-20T05:56:13;98893.66;;;12.70;100.00
77240;BME280;66258;53.170;-2.240;2022-12-20T05:58:41;98897.41;;;12.69;100.00
77240;BME280;66258;53.170;-2.240;2022-12-20T06:01:08;98888.84;;;12.72;100.00
77240;BME280;66258;53.170;-2.240;2022-12-20T06:03:39;98896.59;;;12.68;100.00
77240;BME280;66258;53.170;-2.240;2022-12-20T06:06:07;98902.84;;;12.69;100.00
77240;BME280;66258;53.170;-2.240;2022-12-20T06:08:40;98904.53;;;12.70;100.00
77240;BME280;66258;53.170;-2.240;2022-12-20T06:11:07;98904.16;;;12.60;100.00
77240;BME280;66258;53.170;-2.240;2022-12-20T06:13:35;98908.97;;;12.58;100.00
77240;BME280;66258;53.170;-2.240;2022-12-20T06:16:02;98906.88;;;12.53;100.00
77240;BME280;66258;53.170;-2.240;2022-12-20T06:18:29;98912.09;;;12.61;100.00
77240;BME280;66258;53.170;-2.240;2022-12-20T06:20:56;98915.84;;;12.67;100.00
77240;BME280;66258;53.170;-2.240;2022-12-20T06:23:23;98916.88;;;12.59;100.00
77240;BME280;66258;53.170;-2.240;2022-12-20T06:25:52;98916.47;;;12.56;100.00
77240;BME280;66258;53.170;-2.240;2022-12-20T06:28:19;98930.88;;;12.63;100.00
77240;BME280;66258;53.170;-2.240;2022-12-20T06:30:53;98927.53;;;12.61;100.00
77240;BME280;66258;53.170;-2.240;2022-12-20T06:33:21;98925.25;;;12.58;100.00
77240;BME280;66258;53.170;-2.240;2022-12-20T06:35:49;98924.63;;;12.62;100.00
77240;BME280;66258;53.170;-2.240;2022-12-20T06:38:16;98922.53;;;12.58;100.00
77240;BME280;66258;53.170;-2.240;2022-12-20T06:40:44;98918.78;;;12.52;100.00
77240;BME280;66258;53.170;-2.240;2022-12-20T06:43:11;98911.25;;;12.48;100.00
77240;BME280;66258;53.170;-2.240;2022-12-20T06:45:39;98921.75;;;12.44;100.00
77240;BME280;66258;53.170;-2.240;2022-12-20T06:48:08;98923.00;;;12.42;100.00
77240;BME280;66258;53.170;-2.240;2022-12-20T06:50:37;98929.22;;;12.49;100.00
77240;BME280;66258;53.170;-2.240;2022-12-20T06:53:04;98935.50;;;12.49;100.00
77240;BME280;66258;53.170;-2.240;2022-12-20T06:55:31;98939.88;;;12.50;100.00
77240;BME280;66258;53.170;-2.240;2022-12-20T06:57:58;98942.16;;;12.53;100.00
77240;BME280;66258;53.170;-2.240;2022-12-20T07:00:25;98938.03;;;12.44;100.00
77240;BME280;66258;53.170;-2.240;2022-12-20T07:02:52;98946.16;;;12.44;100.00
77240;BME280;66258;53.170;-2.240;2022-12-20T07:05:20;98949.69;;;12.51;100.00
77240;BME280;66258;53.170;-2.240;2022-12-20T07:07:48;98952.22;;;12.26;100.00
77240;BME280;66258;53.170;-2.240;2022-12-20T07:10:16;98950.56;;;12.38;100.00
77240;BME280;66258;53.170;-2.240;2022-12-20T07:12:43;98958.28;;;12.35;100.00
77240;BME280;66258;53.170;-2.240;2022-12-20T07:15:14;98953.06;;;12.33;100.00
77240;BME280;66258;53.170;-2.240;2022-12-20T07:17:41;98956.84;;;12.26;100.00
77240;BME280;66258;53.170;-2.240;2022-12-20T07:20:09;98959.13;;;12.09;100.00
77240;BME280;66258;53.170;-2.240;2022-12-20T07:22:39;98969.38;;;12.20;100.00
77240;BME280;66258;53.170;-2.240;2022-12-20T07:25:07;98963.69;;;12.28;100.00
77240;BME280;66258;53.170;-2.240;2022-12-20T07:27:34;98967.28;;;12.22;100.00
77240;BME280;66258;53.170;-2.240;2022-12-20T07:30:03;98958.50;;;12.20;100.00
77240;BME280;66258;53.170;-2.240;2022-12-20T07:32:31;98960.38;;;12.13;100.00
77240;BME280;66258;53.170;-2.240;2022-12-20T07:34:58;98959.75;;;12.11;100.00
77240;BME280;66258;53.170;-2.240;2022-12-20T07:37:28;98953.50;;;12.17;100.00
77240;BME280;66258;53.170;-2.240;2022-12-20T07:39:55;98959.34;;;12.01;100.00
77240;BME280;66258;53.170;-2.240;2022-12-20T07:42:23;98965.19;;;11.98;100.00
77240;BME280;66258;53.170;-2.240;2022-12-20T07:44:59;98977.28;;;12.15;100.00
77240;BME280;66258;53.170;-2.240;2022-12-20T07:47:28;98980.84;;;12.22;100.00
77240;BME280;66258;53.170;-2.240;2022-12-20T07:49:55;98978.75;;;12.18;100.00
77240;BME280;66258;53.170;-2.240;2022-12-20T07:52:23;98980.41;;;12.12;100.00
77240;BME280;66258;53.170;-2.240;2022-12-20T07:54:56;98980.41;;;12.12;100.00
77240;BME280;66258;53.170;-2.240;2022-12-20T07:57:34;98990.00;;;12.08;100.00
77240;BME280;66258;53.170;-2.240;2022-12-20T08:00:04;98992.72;;;12.08;100.00
77240;BME280;66258;53.170;-2.240;2022-12-20T08:02:41;98997.53;;;11.99;100.00
77240;BME280;66258;53.170;-2.240;2022-12-20T08:05:10;98996.47;;;11.87;100.00
77240;BME280;66258;53.170;-2.240;2022-12-20T08:07:39;99002.31;;;11.78;100.00
77240;BME280;66258;53.170;-2.240;2022-12-20T08:10:08;98995.63;;;11.87;100.00
77240;BME280;66258;53.170;-2.240;2022-12-20T08:12:38;99010.66;;;11.89;100.00
77240;BME280;66258;53.170;-2.240;2022-12-20T08:15:06;99012.88;;;11.73;100.00
77240;BME280;66258;53.170;-2.240;2022-12-20T08:17:34;99020.88;;;11.87;100.00
77240;BME280;66258;53.170;-2.240;2022-12-20T08:20:01;99018.94;;;11.75;100.00
77240;BME280;66258;53.170;-2.240;2022-12-20T08:22:29;99023.59;;;11.94;100.00
77240;BME280;66258;53.170;-2.240;2022-12-20T08:24:56;99023.59;;;11.94;100.00
77240;BME280;66258;53.170;-2.240;2022-12-20T08:27:23;99044.47;;;12.00;100.00
77240;BME280;66258;53.170;-2.240;2022-12-20T08:29:51;99033.84;;;12.05;100.00
77240;BME280;66258;53.170;-2.240;2022-12-20T08:32:18;99037.38;;;12.12;100.00
77240;BME280;66258;53.170;-2.240;2022-12-20T08:34:45;99042.59;;;12.14;100.00
77240;BME280;66258;53.170;-2.240;2022-12-20T08:37:16;99052.19;;;12.03;100.00
77240;BME280;66258;53.170;-2.240;2022-12-20T08:39:44;99056.16;;;12.07;100.00
77240;BME280;66258;53.170;-2.240;2022-12-20T08:42:12;99053.25;;;12.02;100.00
77240;BME280;66258;53.170;-2.240;2022-12-20T08:44:39;99063.91;;;12.17;100.00
77240;BME280;66258;53.170;-2.240;2022-12-20T08:47:06;99063.25;;;12.08;100.00
77240;BME280;66258;53.170;-2.240;2022-12-20T08:49:34;99064.94;;;12.29;100.00
77240;BME280;66258;53.170;-2.240;2022-12-20T08:52:01;99069.53;;;12.35;100.00
77240;BME280;66258;53.170;-2.240;2022-12-20T08:54:34;99069.34;;;12.23;100.00
77240;BME280;66258;53.170;-2.240;2022-12-20T08:57:01;99073.91;;;12.29;100.00
77240;BME280;66258;53.170;-2.240;2022-12-20T08:59:28;99069.13;;;12.38;100.00
77240;BME280;66258;53.170;-2.240;2022-12-20T09:01:55;99078.72;;;12.54;100.00
77240;BME280;66258;53.170;-2.240;2022-12-20T09:04:23;99076.22;;;12.52;100.00
77240;BME280;66258;53.170;-2.240;2022-12-20T09:06:50;99089.19;;;12.63;100.00
77240;BME280;66258;53.170;-2.240;2022-12-20T09:09:17;99086.66;;;12.68;100.00
77240;BME280;66258;53.170;-2.240;2022-12-20T09:11:45;99087.28;;;12.51;100.00
77240;BME280;66258;53.170;-2.240;2022-12-20T09:14:12;99094.38;;;12.78;100.00
77240;BME280;66258;53.170;-2.240;2022-12-20T09:16:39;99096.25;;;13.04;100.00
77240;BME280;66258;53.170;-2.240;2022-12-20T09:19:11;99100.81;;;13.30;100.00
77240;BME280;66258;53.170;-2.240;2022-12-20T09:21:39;99108.53;;;13.84;100.00
77240;BME280;66258;53.170;-2.240;2022-12-20T09:24:08;99110.00;;;14.18;100.00
77240;BME280;66258;53.170;-2.240;2022-12-20T09:26:35;99111.75;;;14.13;100.00
77240;BME280;66258;53.170;-2.240;2022-12-20T09:29:03;99108.47;;;13.97;100.00
77240;BME280;66258;53.170;-2.240;2022-12-20T09:31:32;99102.56;;;14.07;100.00
77240;BME280;66258;53.170;-2.240;2022-12-20T09:33:59;99103.22;;;14.34;100.00
77240;BME280;66258;53.170;-2.240;2022-12-20T09:36:27;99116.19;;;14.70;100.00
77240;BME280;66258;53.170;-2.240;2022-12-20T09:38:56;99110.22;;;14.79;100.00
77240;BME280;66258;53.170;-2.240;2022-12-20T09:41:36;99120.25;;;15.04;100.00
77240;BME280;66258;53.170;-2.240;2022-12-20T09:46:39;99128.22;;;14.56;100.00
77240;BME280;66258;53.170;-2.240;2022-12-20T09:49:14;99124.13;;;13.64;100.00
77240;BME280;66258;53.170;-2.240;2022-12-20T09:54:21;99121.53;;;13.18;100.00
77240;BME280;66258;53.170;-2.240;2022-12-20T09:59:27;99137.66;;;13.77;100.00
77240;BME280;66258;53.170;-2.240;2022-12-20T10:02:00;99142.22;;;13.90;100.00
77240;BME280;66258;53.170;-2.240;2022-12-20T10:04:48;99146.53;;;14.04;100.00
77240;BME280;66258;53.170;-2.240;2022-12-20T10:07:40;99152.94;;;14.16;100.00
77240;BME280;66258;53.170;-2.240;2022-12-20T10:10:22;99163.34;;;14.32;100.00
77240;BME280;66258;53.170;-2.240;2022-12-20T10:15:50;99176.13;;;14.32;100.00
77240;BME280;66258;53.170;-2.240;2022-12-20T10:18:43;99172.25;;;14.53;100.00
77240;BME280;66258;53.170;-2.240;2022-12-20T10:24:34;99186.13;;;14.44;100.00
77240;BME280;66258;53.170;-2.240;2022-12-20T10:27:21;99190.91;;;14.49;100.00
77240;BME280;66258;53.170;-2.240;2022-12-20T10:29:49;99185.91;;;14.46;100.00
77240;BME280;66258;53.170;-2.240;2022-12-20T10:32:20;99181.81;;;14.17;100.00
77240;BME280;66258;53.170;-2.240;2022-12-20T10:34:54;99189.66;;;14.00;100.00
77240;BME280;66258;53.170;-2.240;2022-12-20T10:37:22;99170.91;;;13.79;100.00
77240;BME280;66258;53.170;-2.240;2022-12-20T10:39:50;99175.91;;;13.82;100.00
77240;BME280;66258;53.170;-2.240;2022-12-20T10:42:36;99179.59;;;14.01;100.00
77240;BME280;66258;53.170;-2.240;2022-12-20T10:48:05;99185.13;;;13.88;100.00
77240;BME280;66258;53.170;-2.240;2022-12-20T10:50:32;99187.56;;;13.96;100.00
77240;BME280;66258;53.170;-2.240;2022-12-20T10:53:16;99182.59;;;13.86;100.00
77240;BME280;66258;53.170;-2.240;2022-12-20T10:55:45;99194.47;;;14.05;100.00
77240;BME280;66258;53.170;-2.240;2022-12-20T10:58:32;99190.59;;;13.74;100.00
77240;BME280;66258;53.170;-2.240;2022-12-20T11:01:13;99193.75;;;13.71;100.00
77240;BME280;66258;53.170;-2.240;2022-12-20T11:03:51;99193.94;;;13.76;100.00
77240;BME280;66258;53.170;-2.240;2022-12-20T11:06:21;99192.59;;;14.37;100.00
77240;BME280;66258;53.170;-2.240;2022-12-20T11:08:48;99200.72;;;14.82;100.00
77240;BME280;66258;53.170;-2.240;2022-12-20T11:11:25;99197.16;;;14.81;100.00
77240;BME280;66258;53.170;-2.240;2022-12-20T11:13:53;99203.13;;;14.71;100.00
77240;BME280;66258;53.170;-2.240;2022-12-20T11:16:39;99207.31;;;15.24;100.00
77240;BME280;66258;53.170;-2.240;2022-12-20T11:19:34;99195.81;;;15.40;100.00
77240;BME280;66258;53.170;-2.240;2022-12-20T11:27:30;99202.72;;;15.86;100.00
77240;BME280;66258;53.170;-2.240;2022-12-20T11:33:24;99211.88;;;16.09;100.00
77240;BME280;66258;53.170;-2.240;2022-12-20T11:44:14;99201.31;;;14.90;100.00
77240;BME280;66258;53.170;-2.240;2022-12-20T11:57:50;99217.59;;;18.83;100.00
77240;BME280;66258;53.170;-2.240;2022-12-20T12:00:46;99205.34;;;18.45;96.78
77240;BME280;66258;53.170;-2.240;2022-12-20T12:03:35;99209.44;;;18.31;96.42
77240;BME280;66258;53.170;-2.240;2022-12-20T12:06:22;99191.38;;;17.43;98.57
77240;BME280;66258;53.170;-2.240;2022-12-20T12:11:48;99186.34;;;17.05;100.00
77240;BME280;66258;53.170;-2.240;2022-12-20T12:19:55;99178.78;;;16.66;100.00
77240;BME280;66258;53.170;-2.240;2022-12-20T12:22:30;99176.34;;;15.98;100.00
77240;BME280;66258;53.170;-2.240;2022-12-20T12:25:03;99175.97;;;16.54;100.00
77240;BME280;66258;53.170;-2.240;2022-12-20T12:27:34;99181.47;;;17.54;100.00
77240;BME280;66258;53.170;-2.240;2022-12-20T12:30:01;99189.25;;;18.20;99.84
77240;BME280;66258;53.170;-2.240;2022-12-20T12:32:52;99191.47;;;18.64;96.08
77240;BME280;66258;53.170;-2.240;2022-12-20T12:35:51;99190.09;;;18.78;93.84
77240;BME280;66258;53.170;-2.240;2022-12-20T12:44:04;99186.97;;;18.17;96.76
77240;BME280;66258;53.170;-2.240;2022-12-20T12:46:57;99180.44;;;18.18;96.55
77240;BME280;66258;53.170;-2.240;2022-12-20T12:49:29;99183.00;;;17.97;95.47
77240;BME280;66258;53.170;-2.240;2022-12-20T12:52:02;99182.88;;;17.92;96.77
77240;BME280;66258;53.170;-2.240;2022-12-20T12:54:38;99191.25;;;17.73;97.89
77240;BME280;66258;53.170;-2.240;2022-12-20T12:57:15;99192.19;;;17.67;97.86
77240;BME280;66258;53.170;-2.240;2022-12-20T12:59:47;99181.50;;;17.42;98.67
77240;BME280;66258;53.170;-2.240;2022-12-20T13:04:59;99181.13;;;17.39;100.00
77240;BME280;66258;53.170;-2.240;2022-12-20T13:20:34;99170.91;;;17.11;100.00
77240;BME280;66258;53.170;-2.240;2022-12-20T13:25:49;99167.84;;;16.66;100.00
77240;BME280;66258;53.170;-2.240;2022-12-20T13:43:48;99157.09;;;15.56;100.00
77240;BME280;66258;53.170;-2.240;2022-12-20T13:46:30;99152.28;;;15.52;100.00
77240;BME280;66258;53.170;-2.240;2022-12-20T13:49:02;99154.56;;;15.55;100.00
77240;BME280;66258;53.170;-2.240;2022-12-20T13:51:31;99154.56;;;15.36;100.00
77240;BME280;66258;53.170;-2.240;2022-12-20T13:54:01;99153.78;;;15.29;100.00
77240;BME280;66258;53.170;-2.240;2022-12-20T13:56:43;99161.94;;;14.86;100.00
77240;BME280;66258;53.170;-2.240;2022-12-20T13:59:32;99171.78;;;15.12;100.00
77240;BME280;66258;53.170;-2.240;2022-12-20T14:02:03;99170.66;;;14.70;100.00
77240;BME280;66258;53.170;-2.240;2022-12-20T14:04:43;99161.25;;;13.90;100.00
77240;BME280;66258;53.170;-2.240;2022-12-20T14:07:14;99172.31;;;13.95;100.00
77240;BME280;66258;53.170;-2.240;2022-12-20T14:09:45;99175.03;;;13.95;100.00
77240;BME280;66258;53.170;-2.240;2022-12-20T14:12:14;99170.28;;;13.84;100.00
77240;BME280;66258;53.170;-2.240;2022-12-20T14:14:51;99179.16;;;14.10;100.00
77240;BME280;66258;53.170;-2.240;2022-12-20T14:17:31;99178.63;;;13.89;100.00
77240;BME280;66258;53.170;-2.240;2022-12-20T14:22:33;99175.81;;;14.08;100.00
77240;BME280;66258;53.170;-2.240;2022-12-20T14:25:02;99176.66;;;14.09;100.00
77240;BME280;66258;53.170;-2.240;2022-12-20T14:27:34;99170.53;;;14.14;100.00
77240;BME280;66258;53.170;-2.240;2022-12-20T14:30:04;99174.34;;;14.06;100.00
77240;BME280;66258;53.170;-2.240;2022-12-20T14:32:31;99181.41;;;14.20;100.00
77240;BME280;66258;53.170;-2.240;2022-12-20T14:34:59;99184.97;;;14.21;100.00
77240;BME280;66258;53.170;-2.240;2022-12-20T14:37:32;99188.69;;;14.26;100.00
77240;BME280;66258;53.170;-2.240;2022-12-20T14:42:38;99185.81;;;14.15;100.00
77240;BME280;66258;53.170;-2.240;2022-12-20T14:47:59;99178.31;;;14.10;100.00
77240;BME280;66258;53.170;-2.240;2022-12-20T14:52:58;99201.94;;;13.58;100.00
77240;BME280;66258;53.170;-2.240;2022-12-20T14:55:34;99204.00;;;13.69;100.00
77240;BME280;66258;53.170;-2.240;2022-12-20T14:58:31;99208.47;;;13.51;100.00
77240;BME280;66258;53.170;-2.240;2022-12-20T15:01:02;99210.34;;;13.50;100.00
77240;BME280;66258;53.170;-2.240;2022-12-20T15:03:31;99221.84;;;13.46;100.00